Oasis of the Seas — C6XS7 — position and weather

sailwx.info

Track history (hours):
 
Tides and Currents Weather Stations Pressure Air Temp Water Temp Dewpoint Dewpoint Depression Visibility Wind Speed Wind Dir Waves Ship Positions

Oasis of the Seas

Last reported at 2016-Feb-06 23:21 UTC. Time now 2016-Feb-12 20:28 UTC.
Position N 26°07' W 079°47'.

Length 360 m; draft 9.3 m.

Type: Passenger vessel. MMSI: 311020600.

Date/timePositionNaut miles runAvg speedWind from/ knotsBaromVisibWave heightAir tempDewpointWater temp
2016-Feb-06 23:21N 26°07' W 079°47'1012.8
2016-Feb-06 22:33N 26°06' W 079°58'8 7.9
2016-Feb-06 21:30N 26°05' W 080°07'0 0.0
2016-Feb-06 20:33N 26°05' W 080°07'0 0.0
2016-Feb-06 19:33N 26°05' W 080°07'0 0.0
2016-Feb-06 18:33N 26°05' W 080°07'0 0.0
2016-Feb-06 17:33N 26°05' W 080°07'0 0.0
2016-Feb-06 16:33N 26°05' W 080°07'0 0.0
2016-Feb-06 15:33N 26°05' W 080°07'0 0.0
2016-Feb-06 14:33N 26°05' W 080°07'0 0.0
2016-Feb-06 13:33N 26°05' W 080°07'0 0.0
2016-Feb-06 12:33N 26°05' W 080°07'0 0.0
2016-Feb-06 11:24N 26°05' W 080°07'2 2.8
2016-Feb-06 10:33N 26°06' W 080°05'1413.7
2016-Feb-06 09:33N 25°53' W 079°58'1919.2
2016-Feb-06 08:33N 25°34' W 079°56'48715.1
2016-Feb-05 00:21N 20°37' W 086°57'910.4
2016-Feb-04 23:32N 20°29' W 086°59'0 0.0
2016-Feb-04 22:29N 20°29' W 086°59'0 0.0
2016-Feb-04 21:32N 20°29' W 086°59'0 0.0
2016-Feb-04 20:32N 20°29' W 086°59'0 0.0
2016-Feb-04 19:32N 20°29' W 086°59'0 0.0
2016-Feb-04 18:32N 20°29' W 086°59'0 0.0
2016-Feb-04 17:32N 20°29' W 086°59'0 0.0
2016-Feb-04 16:32N 20°29' W 086°59'0 0.0
2016-Feb-04 15:32N 20°29' W 086°59'0 0.0
2016-Feb-04 14:32N 20°29' W 086°59'0 0.0
2016-Feb-04 13:32N 20°29' W 086°59'0 0.2
2016-Feb-04 12:34N 20°29' W 086°59'9 8.8
2016-Feb-04 11:33N 20°37' W 086°55'  
2016-Jan-31 00:15N 25°31' W 079°54'1115.4
2016-Jan-30 23:34N 25°41' W 079°57'1615.7
2016-Jan-30 22:34N 25°56' W 080°02'1110.6
2016-Jan-30 21:34N 26°05' W 080°07'0 0.2
2016-Jan-30 20:33N 26°05' W 080°07'0 0.0
2016-Jan-30 19:33N 26°05' W 080°07'0 0.0
2016-Jan-30 18:33N 26°05' W 080°07'0 0.0
2016-Jan-30 17:33N 26°05' W 080°07'0 0.0
2016-Jan-30 16:33N 26°05' W 080°07'0 0.0
2016-Jan-30 15:33N 26°05' W 080°07'0 0.0
2016-Jan-30 14:33N 26°05' W 080°07'0 0.0
2016-Jan-30 13:33N 26°05' W 080°07'0 0.0
2016-Jan-30 12:33N 26°05' W 080°07'0 0.0
2016-Jan-30 11:33N 26°05' W 080°07'0 0.0
2016-Jan-30 10:34N 26°05' W 080°07'1211.5
2016-Jan-30 09:33N 26°06' W 079°54'2121.2
2016-Jan-30 08:33N 26°09' W 079°31'  
2016-Jan-28 02:27N 18°41' W 064°04'  
Track history (hours):
 
Tides and Currents Weather Stations Pressure Air Temp Water Temp Dewpoint Dewpoint Depression Visibility Wind Speed Wind Dir Waves Ship Positions

Oasis of the Seas

Last reported at 2016-Feb-06 23:21 UTC. Time now 2016-Feb-12 20:28 UTC.
Position N 26°07' W 079°47'.

Length 360 m; draft 9.3 m.

Type: Passenger vessel. MMSI: 311020600.

Date/timePositionNaut miles runAvg speedWind from/ knotsBaromVisibWave heightAir tempDewpointWater temp
2016-Feb-06 23:21N 26°07' W 079°47'1012.8
2016-Feb-06 22:33N 26°06' W 079°58'8 7.9
2016-Feb-06 21:30N 26°05' W 080°07'0 0.0
2016-Feb-06 20:33N 26°05' W 080°07'0 0.0
2016-Feb-06 19:33N 26°05' W 080°07'0 0.0
2016-Feb-06 18:33N 26°05' W 080°07'0 0.0
2016-Feb-06 17:33N 26°05' W 080°07'0 0.0
2016-Feb-06 16:33N 26°05' W 080°07'0 0.0
2016-Feb-06 15:33N 26°05' W 080°07'0 0.0
2016-Feb-06 14:33N 26°05' W 080°07'0 0.0
2016-Feb-06 13:33N 26°05' W 080°07'0 0.0
2016-Feb-06 12:33N 26°05' W 080°07'0 0.0
2016-Feb-06 11:24N 26°05' W 080°07'2 2.8
2016-Feb-06 10:33N 26°06' W 080°05'1413.7
2016-Feb-06 09:33N 25°53' W 079°58'1919.2
2016-Feb-06 08:33N 25°34' W 079°56'48715.1
2016-Feb-05 00:21N 20°37' W 086°57'910.4
2016-Feb-04 23:32N 20°29' W 086°59'0 0.0
2016-Feb-04 22:29N 20°29' W 086°59'0 0.0
2016-Feb-04 21:32N 20°29' W 086°59'0 0.0
2016-Feb-04 20:32N 20°29' W 086°59'0 0.0
2016-Feb-04 19:32N 20°29' W 086°59'0 0.0
2016-Feb-04 18:32N 20°29' W 086°59'0 0.0
2016-Feb-04 17:32N 20°29' W 086°59'0 0.0
2016-Feb-04 16:32N 20°29' W 086°59'0 0.0
2016-Feb-04 15:32N 20°29' W 086°59'0 0.0
2016-Feb-04 14:32N 20°29' W 086°59'0 0.0
2016-Feb-04 13:32N 20°29' W 086°59'0 0.2
2016-Feb-04 12:34N 20°29' W 086°59'9 8.8
2016-Feb-04 11:33N 20°37' W 086°55'  
2016-Jan-31 00:15N 25°31' W 079°54'1115.4
2016-Jan-30 23:34N 25°41' W 079°57'1615.7
2016-Jan-30 22:34N 25°56' W 080°02'1110.6
2016-Jan-30 21:34N 26°05' W 080°07'0 0.2
2016-Jan-30 20:33N 26°05' W 080°07'0 0.0
2016-Jan-30 19:33N 26°05' W 080°07'0 0.0
2016-Jan-30 18:33N 26°05' W 080°07'0 0.0
2016-Jan-30 17:33N 26°05' W 080°07'0 0.0
2016-Jan-30 16:33N 26°05' W 080°07'0 0.0
2016-Jan-30 15:33N 26°05' W 080°07'0 0.0
2016-Jan-30 14:33N 26°05' W 080°07'0 0.0
2016-Jan-30 13:33N 26°05' W 080°07'0 0.0
2016-Jan-30 12:33N 26°05' W 080°07'0 0.0
2016-Jan-30 11:33N 26°05' W 080°07'0 0.0
2016-Jan-30 10:34N 26°05' W 080°07'1211.5
2016-Jan-30 09:33N 26°06' W 079°54'2121.2
2016-Jan-30 08:33N 26°09' W 079°31'  
2016-Jan-28 02:27N 18°41' W 064°04'  

Dump ship's entire track history